Riderwood, Alabama
Current Conditions -  °F | °C
As of 7:35 AM on Friday 19 Dec 2014 (Local Time) from KDYA Reporting Station
Overcast Overcast  
Wind Chill: 44°   Ceiling: 3200
Heat Index: 44°   Visibility: 10mi
Dew Point: 35°   Wind: 0mph
Humidity: 71%   Direction: NA
Pressure: 30.22"   Gusts: NA
Location:  32.0668°N, 88.2133°W
Report Text: KDYA 191335Z AUTO 00000KT 10SM OVC032 07/02 A3022 RMK AO2 T00650015
Loading
Personal Weather Stations






























Interactive Weather Map New forecast layout! Learn more

10-Day Weather Forecast

Advertisements
Track Severe Weather on mobile